Millersview, Texas
Current Conditions -  °F | °C
As of 11:55 PM on Saturday 20 Dec 2014 (Local Time) from KBBD Reporting Station
Overcast Overcast  
Wind Chill: 38°   Ceiling: 2000
Heat Index: 41°   Visibility: 10mi
Dew Point: 41°   Wind: 5mph
Humidity: 100%   Direction: 130°SE
Pressure: 30.13"   Gusts: NA
Location:  31.41°N, 99.76°W
Report Text: KBBD 210555Z AUTO 13004KT 10SM OVC020 05/05 A3013 RMK
Loading
Personal Weather Stations






























Interactive Weather Map New forecast layout! Learn more

10-Day Weather Forecast

Advertisements
Track Severe Weather on mobile